Elkhorn, West Virginia
Current Conditions -  °F | °C
As of 7:52 PM on Sunday 23 Nov 2014 (Local Time) from KBLF Reporting Station
Moderate Rain Moderate Rain  
Wind Chill: 54°   Ceiling: 1200
Heat Index: 54°   Visibility: 4mi
Dew Point: 48°   Wind: 12mph
Humidity: 80%   Direction: 130°SE
Pressure: 29.75"   Gusts: 28mph
Location:  37.39°N, 81.41°W
Report Text: KBLF 240052Z AUTO 13010G24KT 100V160 4SM RA BKN012 OVC040 12/09 A2975 RMK AO2 PK WND 12028/0015 SLP062 P0020 T01220089
Loading
Personal Weather Stations






























Interactive Weather Map New forecast layout! Learn more

10-Day Weather Forecast

Advertisements
Track Severe Weather on mobile